Time,TemperatureF,DewpointF,PressureIn,WindDirection,WindDirectionDegrees,WindSpeedMPH,WindSpeedGustMPH,Humidity,HourlyPrecipIn,Conditions,Clouds,dailyrainin,SoftwareType,DateUTC
2013-05-01 00:01:00,70.7,66.3,29.74,NNE,30,0.0,0.0,86,0.00,RA,,0.00,WeatherDisplay:10.37,2013-05-01 05:01:00,
2013-05-01 00:06:00,70.6,65.9,29.74,NNE,31,0.0,0.0,85,0.00,RA,,0.00,WeatherDisplay:10.37,2013-05-01 05:06:00,
2013-05-01 00:11:00,70.4,65.7,29.74,NE,36,0.3,2.3,85,0.00,CLR,,0.00,WeatherDisplay:10.37,2013-05-01 05:11:00,
2013-05-01 00:16:00,70.3,65.9,29.74,NE,36,0.0,0.0,86,0.00,CLR,,0.00,WeatherDisplay:10.37,2013-05-01 05:16:00,
2013-05-01 00:21:00,70.2,65.8,29.74,NE,36,0.0,0.0,86,0.00,CLR,,0.00,WeatherDisplay:10.37,2013-05-01 05:21:00,
2013-05-01 00:26:00,70.1,65.7,29.74,NE,36,0.0,0.0,86,0.00,CLR,,0.00,WeatherDisplay:10.37,2013-05-01 05:26:00,
2013-05-01 00:31:00,69.9,65.5,29.74,NE,36,0.1,0.0,86,0.00,CLR,,0.00,WeatherDisplay:10.37,2013-05-01 05:31:00,
2013-05-01 00:36:00,69.8,65.4,29.74,North,5,0.0,0.0,86,0.00,CLR,,0.00,WeatherDisplay:10.37,2013-05-01 05:36:00,
2013-05-01 00:41:00,69.7,65.3,29.74,North,5,0.0,0.0,86,0.00,CLR,,0.00,WeatherDisplay:10.37,2013-05-01 05:41:00,
2013-05-01 00:46:00,69.5,65.1,29.74,North,5,0.0,0.0,86,0.00,CLR,,0.00,WeatherDisplay:10.37,2013-05-01 05:46:00,
2013-05-01 00:51:00,69.3,64.9,29.74,North,5,0.0,0.0,86,0.00,CLR,,0.00,WeatherDisplay:10.37,2013-05-01 05:51:00,
2013-05-01 00:56:00,69.1,64.7,29.74,North,5,0.0,0.0,86,0.00,CLR,,0.00,WeatherDisplay:10.37,2013-05-01 05:56:00,
2013-05-01 01:01:00,68.9,64.9,29.74,North,5,0.0,0.0,87,0.00,CLR,,0.00,WeatherDisplay:10.37,2013-05-01 06:01:00,
2013-05-01 01:06:00,68.7,64.7,29.74,North,5,0.0,0.0,87,0.00,CLR,,0.00,WeatherDisplay:10.37,2013-05-01 06:06:00,
2013-05-01 01:11:00,68.5,64.5,29.74,NNE,24,0.0,0.0,87,0.00,CLR,,0.00,WeatherDisplay:10.37,2013-05-01 06:11:00,
2013-05-01 01:16:00,68.3,64.3,29.74,NNE,22,0.1,0.0,87,0.00,CLR,,0.00,WeatherDisplay:10.37,2013-05-01 06:16:00,
2013-05-01 01:21:00,68.1,64.1,29.74,NNE,22,0.0,0.0,87,0.00,CLR,,0.00,WeatherDisplay:10.37,2013-05-01 06:21:00,
2013-05-01 01:26:00,67.9,63.9,29.74,NNE,22,0.0,0.0,87,0.00,CLR,,0.00,WeatherDisplay:10.37,2013-05-01 06:26:00,
2013-05-01 01:31:00,67.8,63.8,29.74,NNE,22,0.0,0.0,87,0.00,CLR,,0.00,WeatherDisplay:10.37,2013-05-01 06:31:00,
2013-05-01 01:36:00,67.6,63.6,29.74,NNE,22,0.0,0.0,87,0.00,CLR,,0.00,WeatherDisplay:10.37,2013-05-01 06:36:00,
2013-05-01 01:41:00,67.5,63.5,29.74,NNE,22,0.0,0.0,87,0.00,CLR,,0.00,WeatherDisplay:10.37,2013-05-01 06:41:00,
2013-05-01 01:46:00,67.3,63.3,29.73,NNE,22,0.0,0.0,87,0.00,CLR,,0.00,WeatherDisplay:10.37,2013-05-01 06:46:00,
2013-05-01 01:51:00,67.1,63.4,29.73,NNE,22,0.0,0.0,88,0.00,CLR,,0.00,WeatherDisplay:10.37,2013-05-01 06:51:00,
2013-05-01 01:56:00,67.0,63.3,29.73,NNE,22,0.0,0.0,88,0.00,CLR,,0.00,WeatherDisplay:10.37,2013-05-01 06:56:00,
2013-05-01 02:01:00,66.8,63.1,29.73,NNE,22,0.0,0.0,88,0.00,CLR,,0.00,WeatherDisplay:10.37,2013-05-01 07:01:00,
2013-05-01 02:06:00,66.7,63.0,29.73,NNE,22,0.0,0.0,88,0.00,CLR,,0.00,WeatherDisplay:10.37,2013-05-01 07:06:00,
2013-05-01 02:11:00,66.7,63.4,29.73,NNE,22,0.0,0.0,89,0.00,CLR,,0.00,WeatherDisplay:10.37,2013-05-01 07:11:00,
2013-05-01 02:16:00,66.6,63.3,29.74,NNE,22,0.0,0.0,89,0.00,CLR,,0.00,WeatherDisplay:10.37,2013-05-01 07:16:00,
2013-05-01 02:21:00,66.6,63.3,29.74,SW,225,0.2,1.2,89,0.00,CLR,,0.00,WeatherDisplay:10.37,2013-05-01 07:21:00,
2013-05-01 02:26:00,66.6,63.6,29.74,SW,225,0.0,1.2,90,0.00,CLR,,0.00,WeatherDisplay:10.37,2013-05-01 07:26:00,
2013-05-01 02:31:00,66.7,63.7,29.74,SW,226,0.0,2.3,90,0.00,CLR,,0.00,WeatherDisplay:10.37,2013-05-01 07:31:00,
2013-05-01 02:36:00,66.8,63.8,29.74,West,263,0.0,0.0,90,0.00,CLR,,0.00,WeatherDisplay:10.37,2013-05-01 07:36:00,
2013-05-01 02:41:00,67.0,64.3,29.74,West,261,0.0,0.0,91,0.00,CLR,,0.00,WeatherDisplay:10.37,2013-05-01 07:41:00,
2013-05-01 02:46:00,67.0,64.3,29.74,West,261,0.0,0.0,91,0.00,CLR,,0.00,WeatherDisplay:10.37,2013-05-01 07:46:00,
2013-05-01 02:51:00,67.1,64.4,29.74,NNW,332,0.0,0.0,91,0.00,CLR,,0.00,WeatherDisplay:10.37,2013-05-01 07:51:00,
2013-05-01 02:56:00,67.2,64.5,29.73,WNW,284,0.0,0.0,91,0.00,CLR,,0.00,WeatherDisplay:10.37,2013-05-01 07:56:00,
2013-05-01 03:01:00,67.2,64.5,29.73,WNW,284,0.0,0.0,91,0.00,CLR,,0.00,WeatherDisplay:10.37,2013-05-01 08:01:00,
2013-05-01 03:06:00,67.2,64.5,29.73,WNW,284,0.0,0.0,91,0.00,CLR,,0.00,WeatherDisplay:10.37,2013-05-01 08:06:00,
2013-05-01 03:11:00,67.3,64.6,29.73,WNW,284,0.0,0.0,91,0.00,CLR,,0.00,WeatherDisplay:10.37,2013-05-01 08:11:00,
2013-05-01 03:16:00,67.3,64.6,29.73,WNW,284,0.0,0.0,91,0.00,CLR,,0.00,WeatherDisplay:10.37,2013-05-01 08:16:00,
2013-05-01 03:21:00,67.4,64.7,29.73,WNW,284,0.0,0.0,91,0.00,CLR,,0.00,WeatherDisplay:10.37,2013-05-01 08:21:00,
2013-05-01 03:26:00,67.4,64.7,29.74,WNW,291,0.0,0.0,91,0.00,CLR,,0.00,WeatherDisplay:10.37,2013-05-01 08:26:00,
2013-05-01 03:31:00,67.5,64.8,29.74,East,85,0.0,2.3,91,0.00,CLR,,0.00,WeatherDisplay:10.37,2013-05-01 08:31:00,
2013-05-01 03:36:00,67.5,64.8,29.74,East,86,0.0,0.0,91,0.00,CLR,,0.00,WeatherDisplay:10.37,2013-05-01 08:36:00,
2013-05-01 03:41:00,67.6,64.9,29.74,East,86,0.0,0.0,91,0.00,CLR,,0.00,WeatherDisplay:10.37,2013-05-01 08:41:00,
2013-05-01 03:46:00,67.6,64.9,29.74,East,85,0.0,0.0,91,0.00,CLR,,0.00,WeatherDisplay:10.37,2013-05-01 08:46:00,
2013-05-01 03:51:00,67.6,64.9,29.74,East,85,0.0,0.0,91,0.00,CLR,,0.00,WeatherDisplay:10.37,2013-05-01 08:51:00,
2013-05-01 03:56:00,67.7,65.0,29.74,East,85,0.0,0.0,91,0.00,CLR,,0.00,WeatherDisplay:10.37,2013-05-01 08:56:00,
2013-05-01 04:02:00,67.7,65.0,29.74,East,85,0.0,0.0,91,0.00,CLR,,0.00,WeatherDisplay:10.37,2013-05-01 09:02:00,
2013-05-01 04:07:00,67.7,65.0,29.74,East,85,0.0,0.0,91,0.00,CLR,,0.00,WeatherDisplay:10.37,2013-05-01 09:07:00,
2013-05-01 04:12:00,67.7,65.0,29.74,East,85,0.0,0.0,91,0.00,CLR,,0.00,WeatherDisplay:10.37,2013-05-01 09:12:00,
2013-05-01 04:17:00,67.8,65.1,29.73,East,85,0.0,0.0,91,0.00,CLR,,0.00,WeatherDisplay:10.37,2013-05-01 09:17:00,
2013-05-01 04:22:00,67.8,65.1,29.74,East,85,0.0,0.0,91,0.00,CLR,,0.00,WeatherDisplay:10.37,2013-05-01 09:22:00,
2013-05-01 04:27:00,67.8,65.1,29.74,East,85,0.0,0.0,91,0.00,CLR,,0.00,WeatherDisplay:10.37,2013-05-01 09:27:00,
2013-05-01 04:32:00,67.8,65.1,29.74,East,85,0.0,0.0,91,0.00,CLR,,0.00,WeatherDisplay:10.37,2013-05-01 09:32:00,
2013-05-01 04:37:00,67.8,65.1,29.73,East,85,0.0,0.0,91,0.00,CLR,,0.00,WeatherDisplay:10.37,2013-05-01 09:37:00,
2013-05-01 04:42:00,67.9,65.2,29.73,East,85,0.0,0.0,91,0.00,CLR,,0.00,WeatherDisplay:10.37,2013-05-01 09:42:00,
2013-05-01 04:47:00,67.9,65.2,29.73,East,85,0.0,0.0,91,0.00,CLR,,0.00,WeatherDisplay:10.37,2013-05-01 09:47:00,
2013-05-01 04:52:00,67.9,65.2,29.72,East,85,0.0,0.0,91,0.00,CLR,,0.00,WeatherDisplay:10.37,2013-05-01 09:52:00,
2013-05-01 04:57:00,67.9,65.2,29.72,East,86,0.0,0.0,91,0.00,CLR,,0.00,WeatherDisplay:10.37,2013-05-01 09:57:00,
2013-05-01 05:02:00,67.9,65.2,29.72,East,85,0.0,0.0,91,0.00,CLR,,0.00,WeatherDisplay:10.37,2013-05-01 10:02:00,
2013-05-01 05:07:00,67.9,65.2,29.72,East,85,0.0,0.0,91,0.00,CLR,,0.00,WeatherDisplay:10.37,2013-05-01 10:07:00,
2013-05-01 05:12:00,67.9,65.2,29.72,East,86,0.0,0.0,91,0.00,CLR,,0.00,WeatherDisplay:10.37,2013-05-01 10:12:00,
2013-05-01 05:17:00,67.9,65.2,29.72,East,85,0.0,0.0,91,0.00,CLR,,0.00,WeatherDisplay:10.37,2013-05-01 10:17:00,
2013-05-01 05:22:00,67.9,65.2,29.73,East,85,0.0,0.0,91,0.00,CLR,,0.00,WeatherDisplay:10.37,2013-05-01 10:22:00,
2013-05-01 05:27:00,67.9,65.2,29.72,East,85,0.0,0.0,91,0.00,CLR,,0.00,WeatherDisplay:10.37,2013-05-01 10:27:00,
2013-05-01 05:32:00,67.9,65.2,29.72,East,85,0.0,0.0,91,0.00,CLR,,0.00,WeatherDisplay:10.37,2013-05-01 10:32:00,
2013-05-01 05:37:00,67.8,65.1,29.72,East,86,0.0,0.0,91,0.00,CLR,,0.00,WeatherDisplay:10.37,2013-05-01 10:37:00,
2013-05-01 05:42:00,67.7,65.0,29.71,East,85,0.0,0.0,91,0.00,CLR,,0.00,WeatherDisplay:10.37,2013-05-01 10:42:00,
2013-05-01 05:47:00,67.6,64.9,29.71,East,85,0.0,0.0,91,0.00,CLR,,0.00,WeatherDisplay:10.37,2013-05-01 10:47:00,
2013-05-01 05:52:00,67.6,64.9,29.72,East,85,0.0,0.0,91,0.00,CLR,,0.00,WeatherDisplay:10.37,2013-05-01 10:52:00,
2013-05-01 05:57:00,67.5,64.8,29.72,East,86,0.0,0.0,91,0.00,CLR,,0.00,WeatherDisplay:10.37,2013-05-01 10:57:00,
2013-05-01 06:02:00,67.4,64.7,29.72,East,86,0.0,0.0,91,0.00,CLR,,0.00,WeatherDisplay:10.37,2013-05-01 11:02:00,
2013-05-01 06:07:00,67.3,64.6,29.73,East,85,0.0,0.0,91,0.00,CLR,,0.00,WeatherDisplay:10.37,2013-05-01 11:07:00,
2013-05-01 06:12:00,67.3,64.6,29.73,East,85,0.0,0.0,91,0.00,CLR,,0.00,WeatherDisplay:10.37,2013-05-01 11:12:00,
2013-05-01 06:17:00,67.3,64.6,29.73,East,85,0.0,0.0,91,0.00,CLR,,0.00,WeatherDisplay:10.37,2013-05-01 11:17:00,
2013-05-01 06:22:00,67.3,64.6,29.73,East,85,0.0,0.0,91,0.00,CLR,,0.00,WeatherDisplay:10.37,2013-05-01 11:22:00,
2013-05-01 06:27:00,67.3,64.9,29.73,East,85,0.0,0.0,92,0.00,CLR,,0.00,WeatherDisplay:10.37,2013-05-01 11:27:00,
2013-05-01 06:32:00,67.3,64.9,29.73,East,85,0.0,0.0,92,0.00,CLR,,0.00,WeatherDisplay:10.37,2013-05-01 11:32:00,
2013-05-01 06:37:00,67.3,64.9,29.74,East,85,0.0,0.0,92,0.00,CLR,,0.00,WeatherDisplay:10.37,2013-05-01 11:37:00,
2013-05-01 06:42:00,67.3,64.9,29.74,East,85,0.0,0.0,92,0.00,CLR,,0.00,WeatherDisplay:10.37,2013-05-01 11:42:00,
2013-05-01 06:47:00,67.3,64.9,29.74,East,85,0.0,0.0,92,0.00,CLR,,0.00,WeatherDisplay:10.37,2013-05-01 11:47:00,
2013-05-01 06:52:00,67.3,64.9,29.74,East,86,0.0,0.0,92,0.00,CLR,,0.00,WeatherDisplay:10.37,2013-05-01 11:52:00,
2013-05-01 06:57:00,67.4,65.0,29.74,East,86,0.0,0.0,92,0.00,CLR,,0.00,WeatherDisplay:10.37,2013-05-01 11:57:00,
2013-05-01 07:02:00,67.4,65.0,29.74,East,85,0.0,0.0,92,0.00,CLR,,0.00,WeatherDisplay:10.37,2013-05-01 12:02:00,
2013-05-01 07:07:00,67.4,65.0,29.74,East,86,0.0,0.0,92,0.00,CLR,,0.00,WeatherDisplay:10.37,2013-05-01 12:07:00,
2013-05-01 07:12:00,67.4,65.0,29.75,East,86,0.0,0.0,92,0.00,CLR,,0.00,WeatherDisplay:10.37,2013-05-01 12:12:00,
2013-05-01 07:17:00,67.4,65.3,29.74,East,86,0.0,0.0,93,0.00,CLR,,0.00,WeatherDisplay:10.37,2013-05-01 12:17:00,
2013-05-01 07:22:00,67.4,65.3,29.74,East,86,0.0,0.0,93,0.00,CLR,,0.00,WeatherDisplay:10.37,2013-05-01 12:22:00,
2013-05-01 07:27:00,67.5,65.4,29.74,East,85,0.0,0.0,93,0.00,CLR,,0.00,WeatherDisplay:10.37,2013-05-01 12:27:00,
2013-05-01 07:32:00,67.5,65.4,29.75,East,86,0.0,0.0,93,0.00,CLR,,0.00,WeatherDisplay:10.37,2013-05-01 12:32:00,
2013-05-01 07:37:00,67.6,65.5,29.75,East,86,0.0,0.0,93,0.00,CLR,,0.00,WeatherDisplay:10.37,2013-05-01 12:37:00,
2013-05-01 07:42:00,67.7,65.6,29.75,East,86,0.0,0.0,93,0.00,CLR,,0.00,WeatherDisplay:10.37,2013-05-01 12:42:00,
2013-05-01 07:47:00,67.9,65.8,29.75,East,86,0.0,1.2,93,0.00,CLR,,0.00,WeatherDisplay:10.37,2013-05-01 12:47:00,
2013-05-01 07:52:00,68.0,65.9,29.75,East,86,0.0,0.0,93,0.00,CLR,,0.00,WeatherDisplay:10.37,2013-05-01 12:52:00,
2013-05-01 07:57:00,68.2,66.1,29.75,East,86,0.0,0.0,93,0.00,CLR,,0.00,WeatherDisplay:10.37,2013-05-01 12:57:00,
2013-05-01 08:02:00,68.4,66.3,29.76,East,86,0.0,0.0,93,0.00,CLR,,0.00,WeatherDisplay:10.37,2013-05-01 13:02:00,
2013-05-01 08:07:00,68.5,66.4,29.76,East,86,0.5,2.3,93,0.00,CLR,,0.00,WeatherDisplay:10.37,2013-05-01 13:07:00,
2013-05-01 08:12:00,68.7,66.6,29.76,East,86,0.0,0.0,93,0.00,CLR,,0.00,WeatherDisplay:10.37,2013-05-01 13:12:00,
2013-05-01 08:17:00,68.9,66.8,29.76,East,86,0.0,0.0,93,0.00,CLR,,0.00,WeatherDisplay:10.37,2013-05-01 13:17:00,
2013-05-01 08:22:00,69.2,67.1,29.76,East,86,0.0,1.0,93,0.00,CLR,,0.00,WeatherDisplay:10.37,2013-05-01 13:22:00,
2013-05-01 08:27:00,69.5,67.4,29.76,East,86,0.0,0.0,93,0.00,CLR,,0.00,WeatherDisplay:10.37,2013-05-01 13:27:00,
2013-05-01 08:32:00,69.8,67.7,29.76,SW,225,0.0,0.0,93,0.00,CLR,,0.00,WeatherDisplay:10.37,2013-05-01 13:32:00,
2013-05-01 08:37:00,70.0,67.9,29.76,SW,225,0.0,0.0,93,0.00,CLR,,0.00,WeatherDisplay:10.37,2013-05-01 13:37:00,
2013-05-01 08:42:00,70.3,67.9,29.76,North,350,0.0,1.2,92,0.00,CLR,,0.00,WeatherDisplay:10.37,2013-05-01 13:42:00,
2013-05-01 08:47:00,70.6,68.2,29.76,South,182,0.0,1.2,92,0.00,CLR,,0.00,WeatherDisplay:10.37,2013-05-01 13:47:00,
2013-05-01 08:52:00,71.0,68.2,29.77,South,178,0.0,0.0,91,0.00,CLR,,0.00,WeatherDisplay:10.37,2013-05-01 13:52:00,
2013-05-01 08:57:00,71.4,68.6,29.77,East,84,0.0,1.2,91,0.00,CLR,,0.00,WeatherDisplay:10.37,2013-05-01 13:57:00,
2013-05-01 09:02:00,72.0,68.6,29.77,ENE,63,0.0,3.5,89,0.00,CLR,,0.00,WeatherDisplay:10.37,2013-05-01 14:02:00,
2013-05-01 09:07:00,72.7,68.9,29.77,ENE,63,0.0,0.0,88,0.00,CLR,,0.00,WeatherDisplay:10.37,2013-05-01 14:07:00,
2013-05-01 09:12:00,73.2,68.8,29.77,ENE,65,0.2,1.2,86,0.00,CLR,,0.00,WeatherDisplay:10.37,2013-05-01 14:12:00,
2013-05-01 09:17:00,73.8,68.7,29.77,ENE,65,0.0,1.2,84,0.00,CLR,,0.00,WeatherDisplay:10.37,2013-05-01 14:17:00,
2013-05-01 09:22:00,74.4,68.5,29.77,WSW,242,1.4,1.4,82,0.00,CLR,,0.00,WeatherDisplay:10.37,2013-05-01 14:22:00,
2013-05-01 09:27:00,74.9,68.7,29.78,NNE,13,0.1,2.3,81,0.00,CLR,,0.00,WeatherDisplay:10.37,2013-05-01 14:27:00,
2013-05-01 09:32:00,75.4,69.2,29.77,West,270,0.5,1.2,81,0.00,CLR,,0.00,WeatherDisplay:10.37,2013-05-01 14:32:00,
2013-05-01 09:37:00,75.7,69.1,29.77,SW,226,0.5,3.0,80,0.00,CLR,,0.00,WeatherDisplay:10.37,2013-05-01 14:37:00,
2013-05-01 09:42:00,76.0,69.0,29.78,SW,226,0.0,0.0,79,0.00,CLR,,0.00,WeatherDisplay:10.37,2013-05-01 14:42:00,
2013-05-01 09:47:00,76.1,68.4,29.78,SW,215,0.0,3.5,77,0.00,CLR,,0.00,WeatherDisplay:10.37,2013-05-01 14:47:00,
2013-05-01 09:52:00,76.0,68.3,29.78,ENE,66,0.6,2.0,77,0.00,CLR,,0.00,WeatherDisplay:10.37,2013-05-01 14:52:00,
2013-05-01 09:57:00,76.0,68.3,29.78,NE,54,0.0,1.2,77,0.00,CLR,,0.00,WeatherDisplay:10.37,2013-05-01 14:57:00,
2013-05-01 10:02:00,76.3,68.6,29.78,NNW,345,0.0,0.0,77,0.00,CLR,,0.00,WeatherDisplay:10.37,2013-05-01 15:02:00,
2013-05-01 10:07:00,76.8,68.7,29.78,SE,135,0.4,0.0,76,0.00,CLR,,0.00,WeatherDisplay:10.37,2013-05-01 15:07:00,
2013-05-01 10:12:00,77.0,68.5,29.78,SSW,205,0.0,0.0,75,0.00,CLR,,0.00,WeatherDisplay:10.37,2013-05-01 15:12:00,
2013-05-01 10:17:00,77.2,68.7,29.78,NW,312,0.1,0.0,75,0.00,CLR,,0.00,WeatherDisplay:10.37,2013-05-01 15:17:00,
2013-05-01 10:22:00,77.7,68.7,29.79,SE,129,0.0,0.0,74,0.00,CLR,,0.00,WeatherDisplay:10.37,2013-05-01 15:22:00,
2013-05-01 10:27:00,78.3,69.3,29.78,NE,42,0.0,2.3,74,0.00,CLR,,0.00,WeatherDisplay:10.37,2013-05-01 15:27:00,
2013-05-01 10:32:00,78.8,68.6,29.79,NW,311,0.0,0.0,71,0.00,CLR,,0.00,WeatherDisplay:10.37,2013-05-01 15:32:00,
2013-05-01 10:37:00,78.9,68.7,29.78,WNW,298,0.0,0.0,71,0.00,CLR,,0.00,WeatherDisplay:10.37,2013-05-01 15:37:00,
2013-05-01 10:42:00,78.9,68.7,29.78,WNW,297,0.0,1.2,71,0.00,CLR,,0.00,WeatherDisplay:10.37,2013-05-01 15:42:00,
2013-05-01 10:47:00,79.1,68.9,29.78,SSW,200,0.0,0.0,71,0.00,CLR,,0.00,WeatherDisplay:10.37,2013-05-01 15:47:00,
2013-05-01 10:52:00,79.5,69.3,29.78,North,360,0.1,2.3,71,0.00,CLR,,0.00,WeatherDisplay:10.37,2013-05-01 15:52:00,
2013-05-01 10:57:00,79.9,68.8,29.78,East,90,0.2,1.2,69,0.00,CLR,,0.00,WeatherDisplay:10.37,2013-05-01 15:57:00,
2013-05-01 11:02:00,80.3,69.2,29.78,SSW,201,0.3,0.0,69,0.00,CLR,,0.00,WeatherDisplay:10.37,2013-05-01 16:02:00,
2013-05-01 11:07:00,80.7,69.2,29.78,NE,36,0.0,0.0,68,0.00,CLR,,0.00,WeatherDisplay:10.37,2013-05-01 16:07:00,
2013-05-01 11:12:00,81.2,68.8,29.77,ENE,63,2.6,3.5,66,0.00,CLR,,0.00,WeatherDisplay:10.37,2013-05-01 16:12:00,
2013-05-01 11:17:00,81.6,68.7,29.78,NNW,342,0.0,0.0,65,0.00,CLR,,0.00,WeatherDisplay:10.37,2013-05-01 16:17:00,
2013-05-01 11:22:00,81.9,68.5,29.78,WSW,238,0.0,0.0,64,0.00,CLR,,0.00,WeatherDisplay:10.37,2013-05-01 16:22:00,
2013-05-01 11:27:00,81.9,68.5,29.78,West,272,0.1,2.3,64,0.00,CLR,,0.00,WeatherDisplay:10.37,2013-05-01 16:27:00,
2013-05-01 11:32:00,81.8,68.4,29.77,SSE,165,1.8,2.3,64,0.00,CLR,,0.00,WeatherDisplay:10.37,2013-05-01 16:32:00,
2013-05-01 11:37:00,82.0,68.6,29.77,ESE,103,0.7,3.5,64,0.00,CLR,,0.00,WeatherDisplay:10.37,2013-05-01 16:37:00,
2013-05-01 11:42:00,82.0,68.6,29.77,ENE,63,0.0,0.0,64,0.00,CLR,,0.00,WeatherDisplay:10.37,2013-05-01 16:42:00,
2013-05-01 11:47:00,82.3,68.4,29.77,ENE,64,0.0,1.0,63,0.00,CLR,,0.00,WeatherDisplay:10.37,2013-05-01 16:47:00,
2013-05-01 11:52:00,82.1,68.3,29.77,NE,37,0.3,3.5,63,0.00,CLR,,0.00,WeatherDisplay:10.37,2013-05-01 16:52:00,
2013-05-01 11:57:00,81.6,67.8,29.77,NE,41,0.5,1.2,63,0.00,CLR,,0.00,WeatherDisplay:10.37,2013-05-01 16:57:00,
2013-05-01 12:02:00,81.9,68.5,29.77,East,95,0.6,4.6,64,0.00,CLR,,0.00,WeatherDisplay:10.37,2013-05-01 17:02:00,
2013-05-01 12:07:00,82.8,68.9,29.77,NNE,16,0.1,2.3,63,0.00,CLR,,0.00,WeatherDisplay:10.37,2013-05-01 17:07:00,
2013-05-01 12:12:00,83.4,69.0,29.77,SSW,208,0.8,1.2,62,0.00,CLR,,0.00,WeatherDisplay:10.37,2013-05-01 17:12:00,
2013-05-01 12:17:00,83.2,67.4,29.78,East,85,0.4,2.3,59,0.00,CLR,,0.00,WeatherDisplay:10.37,2013-05-01 17:17:00,
2013-05-01 12:22:00,83.4,68.5,29.77,East,101,0.3,1.2,61,0.00,CLR,,0.00,WeatherDisplay:10.37,2013-05-01 17:22:00,
2013-05-01 12:27:00,83.8,68.4,29.78,West,279,0.7,3.0,60,0.00,CLR,,0.00,WeatherDisplay:10.37,2013-05-01 17:27:00,
2013-05-01 12:32:00,84.0,68.6,29.77,ENE,64,1.5,1.5,60,0.00,CLR,,0.00,WeatherDisplay:10.37,2013-05-01 17:32:00,
2013-05-01 12:37:00,83.9,68.0,29.77,NE,49,0.0,1.2,59,0.00,CLR,,0.00,WeatherDisplay:10.37,2013-05-01 17:37:00,
2013-05-01 12:42:00,84.0,68.6,29.77,West,259,0.2,2.3,60,0.00,CLR,,0.00,WeatherDisplay:10.37,2013-05-01 17:42:00,
2013-05-01 12:47:00,84.5,68.1,29.77,ENE,60,1.0,1.2,58,0.00,CLR,,0.00,WeatherDisplay:10.37,2013-05-01 17:47:00,
2013-05-01 12:52:00,84.8,68.4,29.77,East,100,0.0,0.0,58,0.00,CLR,,0.00,WeatherDisplay:10.37,2013-05-01 17:52:00,
2013-05-01 12:57:00,85.0,68.1,29.77,East,80,0.1,2.3,57,0.00,CLR,,0.00,WeatherDisplay:10.37,2013-05-01 17:57:00,
2013-05-01 13:02:00,84.7,68.3,29.77,ENE,59,0.1,4.6,58,0.00,CLR,,0.00,WeatherDisplay:10.37,2013-05-01 18:02:00,
2013-05-01 13:07:00,84.7,68.3,29.77,West,273,0.0,0.0,58,0.00,CLR,,0.00,WeatherDisplay:10.37,2013-05-01 18:07:00,
2013-05-01 13:12:00,85.1,68.2,29.77,South,180,0.4,2.0,57,0.00,CLR,,0.00,WeatherDisplay:10.37,2013-05-01 18:12:00,
2013-05-01 13:17:00,85.3,68.3,29.77,NE,42,0.3,1.2,57,0.00,CLR,,0.00,WeatherDisplay:10.37,2013-05-01 18:17:00,
2013-05-01 13:22:00,85.4,68.4,29.77,NNE,25,0.2,1.2,57,0.00,CLR,,0.00,WeatherDisplay:10.37,2013-05-01 18:22:00,
2013-05-01 13:27:00,85.2,68.2,29.77,ENE,76,0.0,0.0,57,0.00,CLR,,0.00,WeatherDisplay:10.37,2013-05-01 18:27:00,
2013-05-01 13:32:00,85.8,68.3,29.77,WSW,244,0.9,3.5,56,0.00,CLR,,0.00,WeatherDisplay:10.37,2013-05-01 18:32:00,
2013-05-01 13:37:00,86.4,68.3,29.76,West,269,0.0,0.0,55,0.00,CLR,,0.00,WeatherDisplay:10.37,2013-05-01 18:37:00,
2013-05-01 13:42:00,86.3,67.7,29.77,WSW,247,0.4,1.2,54,0.00,CLR,,0.00,WeatherDisplay:10.37,2013-05-01 18:42:00,
2013-05-01 13:47:00,86.4,68.3,29.77,East,96,0.0,1.2,55,0.00,CLR,,0.00,WeatherDisplay:10.37,2013-05-01 18:47:00,
2013-05-01 13:52:00,85.9,67.3,29.77,ENE,63,2.0,2.3,54,0.00,CLR,,0.00,WeatherDisplay:10.37,2013-05-01 18:52:00,
2013-05-01 13:57:00,85.4,67.4,29.77,NE,37,0.5,3.5,55,0.00,CLR,,0.00,WeatherDisplay:10.37,2013-05-01 18:57:00,
2013-05-01 14:02:00,85.2,67.7,29.77,South,176,0.2,2.3,56,0.00,CLR,,0.00,WeatherDisplay:10.37,2013-05-01 19:02:00,
2013-05-01 14:07:00,85.7,68.2,29.77,West,273,0.4,3.5,56,0.00,CLR,,0.00,WeatherDisplay:10.37,2013-05-01 19:07:00,
2013-05-01 14:12:00,86.1,67.5,29.77,South,183,0.0,2.3,54,0.00,CLR,,0.00,WeatherDisplay:10.37,2013-05-01 19:12:00,
2013-05-01 14:17:00,86.8,68.2,29.76,SW,223,0.0,0.0,54,0.00,CLR,,0.00,WeatherDisplay:10.37,2013-05-01 19:17:00,
2013-05-01 14:22:00,87.5,68.3,29.77,SSW,194,1.0,1.2,53,0.00,CLR,,0.00,WeatherDisplay:10.37,2013-05-01 19:22:00,
2013-05-01 14:27:00,88.1,68.3,29.77,NNE,13,1.3,3.5,52,0.00,CLR,,0.00,WeatherDisplay:10.37,2013-05-01 19:27:00,
2013-05-01 14:32:00,87.4,67.6,29.77,ENE,58,0.0,0.0,52,0.00,CLR,,0.00,WeatherDisplay:10.37,2013-05-01 19:32:00,
2013-05-01 14:37:00,86.8,68.2,29.77,ENE,78,0.9,3.5,54,0.00,CLR,,0.00,WeatherDisplay:10.37,2013-05-01 19:37:00,
2013-05-01 14:42:00,86.6,67.4,29.77,SSW,197,0.7,2.0,53,0.00,CLR,,0.00,WeatherDisplay:10.37,2013-05-01 19:42:00,
2013-05-01 14:47:00,87.1,67.9,29.77,ENE,67,0.0,1.2,53,0.00,CLR,,0.00,WeatherDisplay:10.37,2013-05-01 19:47:00,
2013-05-01 14:52:00,86.9,67.7,29.76,NE,52,0.0,1.2,53,0.00,CLR,,0.00,WeatherDisplay:10.37,2013-05-01 19:52:00,
2013-05-01 14:57:00,86.9,67.7,29.76,NE,49,0.0,1.2,53,0.00,CLR,,0.00,WeatherDisplay:10.37,2013-05-01 19:57:00,
2013-05-01 15:02:00,88.1,69.4,29.76,NE,51,0.0,0.0,54,0.00,CLR,,0.00,WeatherDisplay:10.37,2013-05-01 20:02:00,
2013-05-01 15:07:00,88.2,68.4,29.76,SW,227,0.9,2.3,52,0.00,CLR,,0.00,WeatherDisplay:10.37,2013-05-01 20:07:00,
2013-05-01 15:12:00,88.4,68.0,29.76,SW,231,0.0,0.0,51,0.00,CLR,,0.00,WeatherDisplay:10.37,2013-05-01 20:12:00,
2013-05-01 15:17:00,88.4,67.4,29.76,SW,232,0.3,3.5,50,0.00,CLR,,0.00,WeatherDisplay:10.37,2013-05-01 20:17:00,
2013-05-01 15:22:00,87.7,67.9,29.76,SW,231,0.0,0.0,52,0.00,CLR,,0.00,WeatherDisplay:10.37,2013-05-01 20:22:00,
2013-05-01 15:27:00,87.2,67.4,29.76,ENE,74,0.2,1.2,52,0.00,CLR,,0.00,WeatherDisplay:10.37,2013-05-01 20:27:00,
2013-05-01 15:32:00,86.8,68.2,29.76,ENE,73,0.8,5.0,54,0.00,CLR,,0.00,WeatherDisplay:10.37,2013-05-01 20:32:00,
2013-05-01 15:37:00,86.6,68.5,29.76,ENE,67,0.0,1.2,55,0.00,CLR,,0.00,WeatherDisplay:10.37,2013-05-01 20:37:00,
2013-05-01 15:42:00,86.7,68.6,29.75,WSW,238,0.9,3.0,55,0.00,CLR,,0.00,WeatherDisplay:10.37,2013-05-01 20:42:00,
2013-05-01 15:47:00,87.5,68.8,29.75,ENE,61,0.0,1.2,54,0.00,CLR,,0.00,WeatherDisplay:10.37,2013-05-01 20:47:00,
2013-05-01 15:52:00,88.1,68.8,29.75,NW,304,0.0,3.5,53,0.00,CLR,,0.00,WeatherDisplay:10.37,2013-05-01 20:52:00,
2013-05-01 15:57:00,89.1,68.0,29.75,SSW,204,0.0,0.0,50,0.00,CLR,,0.00,WeatherDisplay:10.37,2013-05-01 20:57:00,
2013-05-01 16:02:00,89.3,68.2,29.75,East,82,0.0,1.2,50,0.00,CLR,,0.00,WeatherDisplay:10.37,2013-05-01 21:02:00,
2013-05-01 16:07:00,89.5,68.4,29.75,SW,222,0.1,2.3,50,0.00,CLR,,0.00,WeatherDisplay:10.37,2013-05-01 21:07:00,
2013-05-01 16:12:00,89.5,67.8,29.75,WSW,242,0.0,0.0,49,0.00,CLR,,0.00,WeatherDisplay:10.37,2013-05-01 21:12:00,
2013-05-01 16:17:00,89.2,68.1,29.74,WSW,242,0.0,0.0,50,0.00,CLR,,0.00,WeatherDisplay:10.37,2013-05-01 21:17:00,
2013-05-01 16:22:00,89.1,68.6,29.74,WSW,242,0.0,0.0,51,0.00,CLR,,0.00,WeatherDisplay:10.37,2013-05-01 21:22:00,
2013-05-01 16:27:00,88.9,67.9,29.74,ENE,61,0.0,0.0,50,0.00,CLR,,0.00,WeatherDisplay:10.37,2013-05-01 21:27:00,
2013-05-01 16:32:00,88.9,67.3,29.74,SW,219,0.2,3.5,49,0.00,CLR,,0.00,WeatherDisplay:10.37,2013-05-01 21:32:00,
2013-05-01 16:37:00,89.0,67.4,29.74,WSW,238,1.3,2.3,49,0.00,CLR,,0.00,WeatherDisplay:10.37,2013-05-01 21:37:00,
2013-05-01 16:42:00,89.1,68.0,29.74,SW,226,1.1,2.3,50,0.00,CLR,,0.00,WeatherDisplay:10.37,2013-05-01 21:42:00,
2013-05-01 16:47:00,89.3,68.8,29.74,SW,226,0.0,0.0,51,0.00,CLR,,0.00,WeatherDisplay:10.37,2013-05-01 21:47:00,
2013-05-01 16:52:00,89.7,68.6,29.74,WSW,237,1.1,2.3,50,0.00,CLR,,0.00,WeatherDisplay:10.37,2013-05-01 21:52:00,
2013-05-01 16:57:00,89.9,68.2,29.74,SW,228,0.5,0.0,49,0.00,CLR,,0.00,WeatherDisplay:10.37,2013-05-01 21:57:00,
2013-05-01 17:02:00,89.5,67.8,29.74,SW,227,0.0,0.0,49,0.00,CLR,,0.00,WeatherDisplay:10.37,2013-05-01 22:02:00,
2013-05-01 17:07:00,89.4,67.7,29.74,SW,227,0.0,0.0,49,0.00,CLR,,0.00,WeatherDisplay:10.37,2013-05-01 22:07:00,
2013-05-01 17:12:00,89.4,67.7,29.74,SW,227,0.0,0.0,49,0.00,CLR,,0.00,WeatherDisplay:10.37,2013-05-01 22:12:00,
2013-05-01 17:17:00,89.2,68.1,29.74,SW,222,0.0,0.0,50,0.00,CLR,,0.00,WeatherDisplay:10.37,2013-05-01 22:17:00,
2013-05-01 17:22:00,88.8,68.3,29.74,NNW,346,0.0,0.0,51,0.00,CLR,,0.00,WeatherDisplay:10.37,2013-05-01 22:22:00,
2013-05-01 17:27:00,88.6,68.2,29.73,ESE,102,0.0,0.0,51,0.00,CLR,,0.00,WeatherDisplay:10.37,2013-05-01 22:27:00,
2013-05-01 17:32:00,88.9,67.9,29.73,SW,225,0.0,0.0,50,0.00,CLR,,0.00,WeatherDisplay:10.37,2013-05-01 22:32:00,
2013-05-01 17:37:00,89.1,68.0,29.73,SW,225,0.1,2.0,50,0.00,CLR,,0.00,WeatherDisplay:10.37,2013-05-01 22:37:00,
2013-05-01 17:42:00,89.0,67.9,29.73,WNW,290,0.0,0.0,50,0.00,CLR,,0.00,WeatherDisplay:10.37,2013-05-01 22:42:00,
2013-05-01 17:47:00,88.8,67.8,29.73,WNW,288,0.0,1.2,50,0.00,CLR,,0.00,WeatherDisplay:10.37,2013-05-01 22:47:00,
2013-05-01 17:52:00,88.4,68.0,29.73,WNW,289,0.0,0.0,51,0.00,CLR,,0.00,WeatherDisplay:10.37,2013-05-01 22:52:00,
2013-05-01 17:57:00,88.1,67.7,29.73,WNW,288,0.0,0.0,51,0.00,CLR,,0.00,WeatherDisplay:10.37,2013-05-01 22:57:00,
2013-05-01 18:02:00,87.8,67.4,29.72,SW,217,0.0,1.2,51,0.00,CLR,,0.00,WeatherDisplay:10.37,2013-05-01 23:02:00,
2013-05-01 18:07:00,87.5,68.3,29.72,SW,217,0.0,0.0,53,0.00,CLR,,0.00,WeatherDisplay:10.37,2013-05-01 23:07:00,
2013-05-01 18:12:00,87.2,68.0,29.72,SSW,210,0.0,0.0,53,0.00,CLR,,0.00,WeatherDisplay:10.37,2013-05-01 23:12:00,
2013-05-01 18:17:00,86.6,67.4,29.72,NE,46,0.0,0.0,53,0.00,CLR,,0.00,WeatherDisplay:10.37,2013-05-01 23:17:00,
2013-05-01 18:22:00,86.3,67.7,29.72,NE,46,0.0,1.2,54,0.00,CLR,,0.00,WeatherDisplay:10.37,2013-05-01 23:22:00,
2013-05-01 18:27:00,85.9,67.3,29.72,NE,40,0.0,0.0,54,0.00,CLR,,0.00,WeatherDisplay:10.37,2013-05-01 23:27:00,
2013-05-01 18:32:00,85.7,67.7,29.72,NE,40,0.0,0.0,55,0.00,CLR,,0.00,WeatherDisplay:10.37,2013-05-01 23:32:00,
2013-05-01 18:37:00,85.7,68.2,29.72,NE,40,0.0,0.0,56,0.00,CLR,,0.00,WeatherDisplay:10.37,2013-05-01 23:37:00,
2013-05-01 18:42:00,85.6,67.6,29.73,ENE,61,0.0,0.0,55,0.00,CLR,,0.00,WeatherDisplay:10.37,2013-05-01 23:42:00,
2013-05-01 18:47:00,85.5,68.0,29.73,ENE,61,0.0,0.0,56,0.00,CLR,,0.00,WeatherDisplay:10.37,2013-05-01 23:47:00,
2013-05-01 18:52:00,85.6,68.1,29.72,ENE,61,0.0,0.0,56,0.00,CLR,,0.00,WeatherDisplay:10.37,2013-05-01 23:52:00,
2013-05-01 18:57:00,85.3,67.3,29.72,ENE,61,0.0,1.2,55,0.00,CLR,,0.00,WeatherDisplay:10.37,2013-05-01 23:57:00,
2013-05-01 19:02:00,85.1,67.6,29.72,ENE,70,0.2,1.2,56,0.00,CLR,,0.00,WeatherDisplay:10.37,2013-05-02 00:02:00,
2013-05-01 19:07:00,85.0,67.5,29.72,ENE,69,0.0,0.0,56,0.00,CLR,,0.00,WeatherDisplay:10.37,2013-05-02 00:07:00,
2013-05-01 19:12:00,84.9,67.5,29.72,ENE,69,0.0,0.0,56,0.00,CLR,,0.00,WeatherDisplay:10.37,2013-05-02 00:12:00,
2013-05-01 19:17:00,84.8,67.9,29.72,ENE,69,0.0,0.0,57,0.00,CLR,,0.00,WeatherDisplay:10.37,2013-05-02 00:17:00,
2013-05-01 19:22:00,84.7,67.8,29.72,ENE,69,0.0,0.0,57,0.00,CLR,,0.00,WeatherDisplay:10.37,2013-05-02 00:22:00,
2013-05-01 19:27:00,84.6,67.7,29.73,ENE,69,0.0,0.0,57,0.00,CLR,,0.00,WeatherDisplay:10.37,2013-05-02 00:27:00,
2013-05-01 19:32:00,84.4,67.5,29.73,ENE,69,0.0,0.0,57,0.00,CLR,,0.00,WeatherDisplay:10.37,2013-05-02 00:32:00,
2013-05-01 19:37:00,84.2,67.8,29.73,ENE,69,0.0,0.0,58,0.00,CLR,,0.00,WeatherDisplay:10.37,2013-05-02 00:37:00,
2013-05-01 19:42:00,83.9,67.5,29.74,ENE,78,0.1,1.2,58,0.00,CLR,,0.00,WeatherDisplay:10.37,2013-05-02 00:42:00,
2013-05-01 19:47:00,83.6,67.8,29.74,NE,38,0.0,0.0,59,0.00,CLR,,0.00,WeatherDisplay:10.37,2013-05-02 00:47:00,
2013-05-01 19:52:00,83.3,68.0,29.75,NE,48,0.3,3.5,60,0.00,CLR,,0.00,WeatherDisplay:10.37,2013-05-02 00:52:00,
2013-05-01 19:57:00,83.0,67.7,29.75,NE,48,0.0,0.0,60,0.00,CLR,,0.00,WeatherDisplay:10.37,2013-05-02 00:57:00,
2013-05-01 20:02:00,82.7,67.4,29.75,ENE,57,1.0,1.2,60,0.00,CLR,,0.00,WeatherDisplay:10.37,2013-05-02 01:02:00,
2013-05-01 20:07:00,82.4,67.6,29.75,ENE,59,0.6,1.2,61,0.00,CLR,,0.00,WeatherDisplay:10.37,2013-05-02 01:07:00,
2013-05-01 20:12:00,82.0,67.2,29.75,NE,42,0.4,2.3,61,0.00,CLR,,0.00,WeatherDisplay:10.37,2013-05-02 01:12:00,
2013-05-01 20:17:00,81.8,67.5,29.75,East,84,0.0,0.0,62,0.00,CLR,,0.00,WeatherDisplay:10.37,2013-05-02 01:17:00,
2013-05-01 20:22:00,81.5,67.2,29.76,ENE,67,0.2,0.0,62,0.00,CLR,,0.00,WeatherDisplay:10.37,2013-05-02 01:22:00,
2013-05-01 20:27:00,81.3,67.5,29.76,ESE,114,0.3,1.2,63,0.00,CLR,,0.00,WeatherDisplay:10.37,2013-05-02 01:27:00,
2013-05-01 20:32:00,81.2,67.4,29.76,ENE,77,0.0,0.0,63,0.00,CLR,,0.00,WeatherDisplay:10.37,2013-05-02 01:32:00,
2013-05-01 20:37:00,81.0,67.2,29.76,ENE,68,0.1,1.2,63,0.00,CLR,,0.00,WeatherDisplay:10.37,2013-05-02 01:37:00,
2013-05-01 20:42:00,80.9,67.1,29.76,East,90,0.0,0.0,63,0.00,CLR,,0.00,WeatherDisplay:10.37,2013-05-02 01:42:00,
2013-05-01 20:47:00,80.7,66.9,29.76,ENE,61,0.0,2.3,63,0.00,CLR,,0.00,WeatherDisplay:10.37,2013-05-02 01:47:00,
2013-05-01 20:52:00,80.6,67.3,29.76,ENE,66,0.0,0.0,64,0.00,CLR,,0.00,WeatherDisplay:10.37,2013-05-02 01:52:00,
2013-05-01 20:57:00,80.5,67.2,29.76,ENE,66,0.0,0.0,64,0.00,CLR,,0.00,WeatherDisplay:10.37,2013-05-02 01:57:00,
2013-05-01 21:02:00,80.3,67.0,29.76,East,81,0.0,0.0,64,0.00,CLR,,0.00,WeatherDisplay:10.37,2013-05-02 02:02:00,
2013-05-01 21:07:00,80.2,66.9,29.77,East,81,0.0,0.0,64,0.00,CLR,,0.00,WeatherDisplay:10.37,2013-05-02 02:07:00,
2013-05-01 21:12:00,79.9,66.6,29.77,East,92,0.0,0.0,64,0.00,CLR,,0.00,WeatherDisplay:10.37,2013-05-02 02:12:00,
2013-05-01 21:17:00,79.7,66.9,29.78,East,84,0.0,0.0,65,0.00,CLR,,0.00,WeatherDisplay:10.37,2013-05-02 02:17:00,
2013-05-01 21:22:00,79.5,66.7,29.78,East,79,0.0,0.0,65,0.00,CLR,,0.00,WeatherDisplay:10.37,2013-05-02 02:22:00,
2013-05-01 21:27:00,79.3,67.0,29.78,East,79,0.0,0.0,66,0.00,CLR,,0.00,WeatherDisplay:10.37,2013-05-02 02:27:00,
2013-05-01 21:32:00,79.1,66.8,29.78,NE,49,0.1,1.0,66,0.00,CLR,,0.00,WeatherDisplay:10.37,2013-05-02 02:32:00,
2013-05-01 21:37:00,78.8,66.9,29.78,NE,49,0.0,0.0,67,0.00,CLR,,0.00,WeatherDisplay:10.37,2013-05-02 02:37:00,
2013-05-01 21:42:00,78.7,66.8,29.78,NE,51,0.0,0.0,67,0.00,CLR,,0.00,WeatherDisplay:10.37,2013-05-02 02:42:00,
2013-05-01 21:47:00,78.5,66.6,29.79,NNE,28,0.0,2.3,67,0.00,CLR,,0.00,WeatherDisplay:10.37,2013-05-02 02:47:00,
2013-05-01 21:52:00,78.4,67.0,29.80,NNE,28,0.0,0.0,68,0.00,CLR,,0.00,WeatherDisplay:10.37,2013-05-02 02:52:00,
2013-05-01 21:57:00,78.2,66.8,29.80,NNE,23,0.0,0.0,68,0.00,CLR,,0.00,WeatherDisplay:10.37,2013-05-02 02:57:00,
2013-05-01 22:02:00,78.1,67.1,29.81,East,79,0.0,0.0,69,0.00,CLR,,0.00,WeatherDisplay:10.37,2013-05-02 03:02:00,
2013-05-01 22:07:00,78.0,67.0,29.81,ENE,78,0.0,0.0,69,0.00,CLR,,0.00,WeatherDisplay:10.37,2013-05-02 03:07:00,
2013-05-01 22:12:00,78.0,67.0,29.82,ENE,78,0.0,0.0,69,0.00,CLR,,0.00,WeatherDisplay:10.37,2013-05-02 03:12:00,
2013-05-01 22:17:00,78.0,67.4,29.82,ENE,57,0.0,3.0,70,0.00,CLR,,0.00,WeatherDisplay:10.37,2013-05-02 03:17:00,
2013-05-01 22:22:00,77.9,66.9,29.82,ENE,59,0.1,0.0,69,0.00,CLR,,0.00,WeatherDisplay:10.37,2013-05-02 03:22:00,
2013-05-01 22:27:00,77.9,67.3,29.82,ENE,59,0.0,0.0,70,0.00,CLR,,0.00,WeatherDisplay:10.37,2013-05-02 03:27:00,
2013-05-01 22:32:00,77.9,67.3,29.82,ENE,59,0.0,0.0,70,0.00,CLR,,0.00,WeatherDisplay:10.37,2013-05-02 03:32:00,
2013-05-01 22:37:00,77.9,67.3,29.83,ENE,59,0.1,1.2,70,0.00,CLR,,0.00,WeatherDisplay:10.37,2013-05-02 03:37:00,
2013-05-01 22:42:00,77.9,67.3,29.83,NE,52,0.2,0.0,70,0.00,CLR,,0.00,WeatherDisplay:10.37,2013-05-02 03:42:00,
2013-05-01 22:47:00,77.9,67.3,29.83,NE,39,0.0,0.0,70,0.00,CLR,,0.00,WeatherDisplay:10.37,2013-05-02 03:47:00,
2013-05-01 22:52:00,77.9,67.3,29.83,ENE,75,0.2,2.3,70,0.00,CLR,,0.00,WeatherDisplay:10.37,2013-05-02 03:52:00,
2013-05-01 22:57:00,77.8,67.2,29.83,ENE,75,0.0,0.0,70,0.00,CLR,,0.00,WeatherDisplay:10.37,2013-05-02 03:57:00,
2013-05-01 23:01:00,77.8,67.2,29.83,ENE,75,0.0,0.0,70,0.00,CLR,,0.00,WeatherDisplay:10.37,2013-05-02 04:01:00,
2013-05-01 23:06:00,77.7,67.1,29.83,NE,49,0.0,1.2,70,0.00,CLR,,0.00,WeatherDisplay:10.37,2013-05-02 04:06:00,
2013-05-01 23:11:00,77.7,67.1,29.84,NE,50,0.0,0.0,70,0.00,CLR,,0.00,WeatherDisplay:10.37,2013-05-02 04:11:00,
2013-05-01 23:16:00,77.5,66.9,29.84,NNE,26,0.0,2.3,70,0.00,CLR,,0.00,WeatherDisplay:10.37,2013-05-02 04:16:00,
2013-05-01 23:21:00,77.4,66.8,29.84,NNE,27,0.0,0.0,70,0.00,CLR,,0.00,WeatherDisplay:10.37,2013-05-02 04:21:00,
2013-05-01 23:26:00,77.3,67.2,29.85,NNE,28,0.0,0.0,71,0.00,CLR,,0.00,WeatherDisplay:10.37,2013-05-02 04:26:00,
2013-05-01 23:31:00,77.3,67.2,29.85,NNE,27,0.0,0.0,71,0.00,CLR,,0.00,WeatherDisplay:10.37,2013-05-02 04:31:00,
2013-05-01 23:36:00,77.1,67.0,29.85,NNE,27,0.0,0.0,71,0.00,CLR,,0.00,WeatherDisplay:10.37,2013-05-02 04:36:00,
2013-05-01 23:41:00,77.0,66.9,29.85,NNE,27,0.0,0.0,71,0.00,CLR,,0.00,WeatherDisplay:10.37,2013-05-02 04:41:00,
2013-05-01 23:46:00,76.8,67.1,29.84,NNE,27,0.0,0.0,72,0.00,CLR,,0.00,WeatherDisplay:10.37,2013-05-02 04:46:00,
2013-05-01 23:51:00,76.7,67.0,29.84,NNE,32,0.0,1.2,72,0.00,CLR,,0.00,WeatherDisplay:10.37,2013-05-02 04:51:00,
2013-05-01 23:56:00,76.5,66.8,29.85,NNE,32,0.0,0.0,72,0.00,CLR,,0.00,WeatherDisplay:10.37,2013-05-02 04:56:00,